Terminal Aerodrome Forecast
Issued by NWS Detroit/Pontiac, MI

Home | Current Version | Previous Version | Text Only | Print | Product List | Glossary On
Versions: 1 2 3 4 5 6 7 8 9 10 11 12 13 14 15 16 17 18 19 20 21 22 23
000
FTUS43 KDTX 210000 AAA
TAFFNT
TAF AMD
KFNT 210004Z 2100/2124 29007KT P6SM OVC040
      TEMPO 2100/2102 4SM -RA BR BKN015 OVC025
     FM210400 32008KT P6SM OVC015
     FM211400 36013G22KT P6SM OVC025
     FM211800 36015KT P6SM OVC050=

USA.gov is the U.S. government's official web portal to all federal, state and local government web resources and services.